Time;durP1;ratioP1;P1;durP2;ratioP2;P2;SDS_P1;SDS_P2;PMS_P1;PMS_P2;Temp;Humidity;BMP_temperature;BMP_pressure;BME280_temperature;BME280_humidity;BME280_pressure;Samples;Min_cycle;Max_cycle;Signal;HPM_P1;HPM_P2
2021/03/04 00:13:14;;;;;;;21.08;15.63;;;;;;;19.27;37.89;101395.34;31867297;27;20054;-60
2021/03/04 00:28:15;;;;;;;19.00;15.55;;;;;;;19.17;37.87;101389.91;31886767;27;20035;-59
2021/03/04 00:43:16;;;;;;;23.92;17.27;;;;;;;19.10;38.19;101389.53;31812894;27;20496;-58
2021/03/04 00:58:17;;;;;;;21.07;18.00;;;;;;;19.04;38.17;101361.88;31883353;27;20020;-60
2021/03/04 01:13:18;;;;;;;20.33;17.57;;;;;;;18.99;38.38;101348.22;31881323;27;20669;-60
2021/03/04 01:28:19;;;;;;;23.97;19.43;;;;;;;18.93;38.26;101330.22;31860272;27;20285;-59
2021/03/04 01:43:20;;;;;;;23.37;18.67;;;;;;;18.88;38.28;101324.47;31847384;27;20692;-59
2021/03/04 01:58:21;;;;;;;23.35;18.83;;;;;;;18.84;38.56;101304.59;31873765;27;20280;-61
2021/03/04 02:13:28;;;;;;;22.23;19.00;;;;;;;18.78;38.67;101278.69;31878049;27;20433;-61
2021/03/04 02:28:29;;;;;;;24.15;20.65;;;;;;;18.75;38.69;101278.91;31853422;27;20345;-61
2021/03/04 02:43:30;;;;;;;25.38;20.85;;;;;;;18.70;38.93;101266.09;31834618;27;20043;-59
2021/03/04 02:58:31;;;;;;;24.25;19.95;;;;;;;18.67;39.04;101258.44;31850988;27;20563;-60
2021/03/04 03:13:32;;;;;;;24.45;20.08;;;;;;;18.63;39.04;101259.63;31831252;27;20077;-61
2021/03/04 03:28:33;;;;;;;24.33;19.80;;;;;;;18.61;39.15;101257.09;31812445;27;20035;-57
2021/03/04 03:43:34;;;;;;;24.03;20.30;;;;;;;18.57;39.03;101266.16;31836769;27;20396;-61
2021/03/04 03:58:36;;;;;;;24.80;20.02;;;;;;;18.53;39.20;101267.38;31849154;28;20265;-61
2021/03/04 04:13:37;;;;;;;23.20;19.65;;;;;;;18.50;39.21;101258.84;31863618;28;20080;-61
2021/03/04 04:28:38;;;;;;;24.20;18.90;;;;;;;18.49;39.26;101262.47;31865827;28;20023;-59
2021/03/04 04:43:39;;;;;;;22.30;18.38;;;;;;;18.46;39.16;101258.22;31873833;27;20047;-61
2021/03/04 04:58:40;;;;;;;21.60;18.55;;;;;;;18.43;38.97;101259.31;31883390;27;20027;-62
2021/03/04 05:13:41;;;;;;;21.15;17.65;;;;;;;18.41;39.27;101252.47;31862969;27;20031;-61
2021/03/04 05:28:42;;;;;;;21.33;17.25;;;;;;;18.37;39.18;101232.59;31878875;27;20027;-61
2021/03/04 05:43:43;;;;;;;21.02;17.23;;;;;;;18.36;39.17;101225.69;31867549;27;20043;-60
2021/03/04 05:58:44;;;;;;;19.77;16.33;;;;;;;18.32;39.41;101217.16;31839678;27;20481;-60
2021/03/04 06:13:45;;;;;;;19.75;15.80;;;;;;;18.28;39.08;101220.13;31855761;27;20039;-60
2021/03/04 06:28:46;;;;;;;18.63;15.68;;;;;;;18.25;39.14;101225.63;31861869;27;20033;-60
2021/03/04 06:43:47;;;;;;;18.33;14.80;;;;;;;18.21;39.11;101228.50;31846679;27;20531;-60
2021/03/04 06:58:57;;;;;;;48.83;29.15;;;;;;;14.96;35.32;101232.75;31864039;27;20034;-58
2021/03/04 07:13:58;;;;;;;43.78;27.35;;;;;;;13.52;38.94;101230.50;31828106;27;20035;-60
2021/03/04 07:29:06;;;;;;;39.83;21.25;;;;;;;14.89;42.72;101215.72;31830746;27;20033;-59
2021/03/04 07:44:08;;;;;;;38.97;19.73;;;;;;;16.49;43.96;101227.44;31851266;27;20040;-58
2021/03/04 07:59:11;;;;;;;33.13;20.30;;;;;;;17.29;38.52;101231.63;31836683;27;20027;-60
2021/03/04 08:14:15;;;;;;;26.40;16.63;;;;;;;17.97;37.37;101220.63;31823937;27;20047;-59
2021/03/04 08:29:16;;;;;;;24.05;13.45;;;;;;;18.45;35.80;101214.44;31869728;27;20035;-60
2021/03/04 08:44:17;;;;;;;18.08;10.23;;;;;;;18.64;35.75;101211.25;31856517;27;20070;-60
2021/03/04 08:59:22;;;;;;;17.35;10.65;;;;;;;19.18;35.34;101200.06;31867889;27;20072;-60
2021/03/04 09:14:32;;;;;;;14.18;9.95;;;;;;;19.53;35.09;101193.78;31860317;27;20405;-60
2021/03/04 09:29:36;;;;;;;13.50;8.93;;;;;;;19.95;34.59;101179.88;31872326;27;20035;-59
2021/03/04 09:44:51;;;;;;;12.70;8.27;;;;;;;20.14;34.50;101180.06;31870023;27;20043;-59
2021/03/04 09:59:53;;;;;;;12.48;8.32;;;;;;;20.24;34.56;101201.22;31867356;27;20015;-57
2021/03/04 10:14:53;;;;;;;11.65;8.13;;;;;;;20.28;34.35;101200.03;31862497;27;20027;-52
2021/03/04 10:29:54;;;;;;;11.77;7.67;;;;;;;20.41;34.83;101202.44;31856645;27;20031;-57
2021/03/04 10:44:59;;;;;;;13.65;7.85;;;;;;;20.54;34.94;101183.78;31847585;27;20281;-50
2021/03/04 11:00:00;;;;;;;9.93;6.57;;;;;;;20.62;34.79;101199.84;31841044;27;20447;-56
2021/03/04 11:15:01;;;;;;;10.93;7.63;;;;;;;20.62;33.76;101200.69;31855059;27;20035;-55
2021/03/04 11:30:02;;;;;;;9.60;6.73;;;;;;;20.45;34.98;101201.22;31808084;27;20039;-56
2021/03/04 11:45:04;;;;;;;11.27;7.15;;;;;;;20.51;34.40;101191.00;31845665;27;20701;-55
2021/03/04 12:00:05;;;;;;;11.48;7.38;;;;;;;20.62;34.55;101170.81;31862097;27;20084;-55
2021/03/04 12:15:07;;;;;;;16.15;11.50;;;;;;;18.44;26.95;101154.88;31854469;27;20461;-56
2021/03/04 12:30:08;;;;;;;14.80;10.98;;;;;;;19.19;33.73;101148.19;31865620;27;20046;-55
2021/03/04 12:45:10;;;;;;;13.10;8.60;;;;;;;19.94;34.18;101142.13;31854132;27;20129;-55
2021/03/04 13:00:11;;;;;;;12.57;7.95;;;;;;;20.40;33.60;101143.53;31844971;27;20019;-52
2021/03/04 13:15:12;;;;;;;12.10;7.75;;;;;;;20.85;33.32;101137.94;31855420;28;20042;-51
2021/03/04 13:30:14;;;;;;;9.63;6.82;;;;;;;21.10;33.20;101122.59;31856420;27;20035;-57
2021/03/04 13:45:15;;;;;;;9.68;7.53;;;;;;;21.15;33.42;101116.91;31851627;27;542985;-54
2021/03/04 14:00:16;;;;;;;11.75;7.65;;;;;;;21.12;33.85;101132.06;31875302;27;20108;-53
2021/03/04 14:15:17;;;;;;;8.82;6.78;;;;;;;21.11;34.08;101121.63;31869254;27;20035;-52
2021/03/04 14:30:18;;;;;;;13.57;7.73;;;;;;;21.10;33.63;101114.66;31828223;27;20104;-55
2021/03/04 14:45:19;;;;;;;14.40;8.05;;;;;;;21.02;33.12;101110.03;31835687;27;20324;-53
2021/03/04 15:00:20;;;;;;;11.80;7.65;;;;;;;21.01;33.52;101096.97;31862978;27;20092;-56
2021/03/04 15:15:22;;;;;;;13.30;8.60;;;;;;;21.03;33.31;101071.25;31900430;27;20051;-55
2021/03/04 15:30:23;;;;;;;12.38;7.45;;;;;;;21.05;33.48;101066.66;31864542;27;20050;-52
2021/03/04 15:45:25;;;;;;;12.85;8.65;;;;;;;20.99;33.51;101067.22;31863614;27;20112;-53
2021/03/04 16:00:26;;;;;;;11.27;7.72;;;;;;;20.89;34.02;101052.19;31862838;27;20023;-54
2021/03/04 16:15:27;;;;;;;10.23;7.03;;;;;;;20.71;34.11;101056.44;31833450;28;20080;-53
2021/03/04 16:30:28;;;;;;;10.67;7.20;;;;;;;20.62;34.42;101055.44;31858721;28;20450;-52
2021/03/04 16:45:29;;;;;;;11.17;7.93;;;;;;;20.53;34.78;101058.84;31836018;27;20304;-56
2021/03/04 17:00:30;;;;;;;9.70;7.80;;;;;;;20.44;34.72;101044.63;31828576;27;20744;-54
2021/03/04 17:15:31;;;;;;;10.27;7.17;;;;;;;20.59;34.60;101053.06;31859640;27;20599;-52
2021/03/04 17:30:32;;;;;;;12.93;8.07;;;;;;;20.67;34.40;101074.34;31853945;27;20615;-56
2021/03/04 17:45:33;;;;;;;11.40;7.72;;;;;;;20.66;34.44;101087.66;31848775;27;20700;-54
2021/03/04 18:00:34;;;;;;;11.63;8.00;;;;;;;20.59;33.97;101095.31;31874624;27;20464;-58
2021/03/04 18:15:35;;;;;;;15.10;7.73;;;;;;;20.47;35.04;101088.41;31872188;27;20303;-57
2021/03/04 18:30:36;;;;;;;11.70;9.00;;;;;;;20.32;34.75;101095.84;31863318;27;20791;-56
2021/03/04 18:45:37;;;;;;;13.50;8.97;;;;;;;20.23;34.22;101102.75;31868028;27;20598;-62
2021/03/04 19:00:38;;;;;;;16.40;9.63;;;;;;;20.19;35.91;101100.50;31862714;27;20746;-62
2021/03/04 19:15:39;;;;;;;13.75;9.88;;;;;;;20.11;36.64;101102.94;31858661;27;20292;-61
2021/03/04 19:30:40;;;;;;;19.45;14.30;;;;;;;16.38;33.55;101100.50;31843748;27;20035;-62
2021/03/04 19:45:41;;;;;;;16.20;11.98;;;;;;;16.90;39.32;101103.00;31854649;27;20488;-61
2021/03/04 20:00:42;;;;;;;16.48;11.10;;;;;;;18.71;36.74;101112.41;31858191;27;20035;-55
2021/03/04 20:15:43;;;;;;;17.45;11.15;;;;;;;19.75;35.12;101119.09;31780878;27;20437;-54
2021/03/04 20:30:45;;;;;;;16.63;11.07;;;;;;;20.34;34.36;101132.66;31883017;27;20027;-56
2021/03/04 20:45:46;;;;;;;15.00;11.02;;;;;;;20.54;33.57;101160.84;31855949;27;20304;-55
2021/03/04 21:00:47;;;;;;;16.07;10.23;;;;;;;20.01;34.85;101172.31;31864443;27;20026;-51
2021/03/04 21:15:48;;;;;;;13.47;10.63;;;;;;;20.29;34.80;101180.56;31884500;27;20820;-53
2021/03/04 21:30:49;;;;;;;14.07;9.43;;;;;;;20.33;34.73;101183.78;31874107;27;20289;-59
2021/03/04 21:45:51;;;;;;;13.03;9.83;;;;;;;20.34;35.02;101196.00;31863950;27;20802;-60
2021/03/04 22:00:52;;;;;;;13.43;10.85;;;;;;;20.44;34.37;101210.13;31855675;27;20305;-57
2021/03/04 22:15:53;;;;;;;12.57;9.68;;;;;;;18.53;32.15;101205.97;31859074;27;20172;-60
2021/03/04 22:30:54;;;;;;;12.20;8.50;;;;;;;18.84;31.98;101217.66;31858524;27;20058;-53
2021/03/04 22:45:55;;;;;;;12.97;8.87;;;;;;;19.19;33.72;101227.25;31860766;27;20300;-56
2021/03/04 23:00:56;;;;;;;17.30;10.20;;;;;;;19.37;33.86;101230.25;31867888;27;20287;-56
2021/03/04 23:15:57;;;;;;;12.00;8.95;;;;;;;19.40;33.91;101245.81;31867062;27;20424;-56
2021/03/04 23:30:58;;;;;;;10.80;7.70;;;;;;;19.39;34.37;101244.97;31874179;27;20035;-60
2021/03/04 23:45:59;;;;;;;9.83;7.80;;;;;;;19.34;34.73;101252.41;31868084;27;20777;-62
